Time;durP1;ratioP1;P1;durP2;ratioP2;P2;SDS_P1;SDS_P2;PMS_P1;PMS_P2;Temp;Humidity;BMP_temperature;BMP_pressure;BME280_temperature;BME280_humidity;BME280_pressure;Samples;Min_cycle;Max_cycle;Signal;HPM_P1;HPM_P2
2022/08/05 00:00:16;;;;;;;4.57;1.45;;;22.20;99.90;;;;;;5079129;28;20076;-58
2022/08/05 00:02:43;;;;;;;4.28;1.70;;;22.20;99.90;;;;;;5079088;28;20041;-58
2022/08/05 00:05:09;;;;;;;6.60;2.10;;;22.10;99.90;;;;;;5078682;28;20408;-58
2022/08/05 00:07:35;;;;;;;5.10;1.98;;;22.00;99.90;;;;;;5078265;28;20064;-58
2022/08/05 00:10:01;;;;;;;3.83;1.65;;;22.00;99.90;;;;;;5079015;28;20024;-58
2022/08/05 00:12:26;;;;;;;6.05;1.60;;;22.00;99.90;;;;;;5079021;28;20052;-58
2022/08/05 00:14:52;;;;;;;5.00;1.50;;;21.90;99.90;;;;;;5078906;28;20029;-59
2022/08/05 00:17:19;;;;;;;4.85;1.67;;;21.90;99.90;;;;;;5078911;28;20032;-59
2022/08/05 00:19:45;;;;;;;5.63;1.98;;;21.90;99.90;;;;;;5078803;28;20043;-58
2022/08/05 00:22:11;;;;;;;4.03;1.50;;;22.00;99.90;;;;;;5078803;28;20024;-59
2022/08/05 00:24:37;;;;;;;6.50;1.98;;;21.90;99.90;;;;;;5079014;28;20119;-59
2022/08/05 00:27:03;;;;;;;4.22;1.75;;;21.90;99.90;;;;;;5078751;28;20021;-59
2022/08/05 00:29:29;;;;;;;4.22;2.10;;;21.90;99.90;;;;;;5078629;28;20029;-58
2022/08/05 00:31:55;;;;;;;5.85;1.95;;;22.00;99.90;;;;;;5077882;28;20036;-59
2022/08/05 00:34:20;;;;;;;5.32;1.70;;;22.00;99.90;;;;;;5077919;28;20400;-58
2022/08/05 00:36:46;;;;;;;4.88;1.63;;;22.00;99.90;;;;;;5061141;28;20032;-58
2022/08/05 00:39:12;;;;;;;6.88;1.80;;;22.00;99.90;;;;;;5078756;28;20442;-58
2022/08/05 00:41:38;;;;;;;5.18;1.98;;;22.10;99.90;;;;;;5078886;28;20020;-58
2022/08/05 00:44:04;;;;;;;5.38;1.98;;;22.20;99.90;;;;;;5078384;28;20048;-58
2022/08/05 00:46:30;;;;;;;5.90;2.30;;;22.20;99.90;;;;;;5077588;28;20090;-58
2022/08/05 00:48:56;;;;;;;5.00;1.92;;;22.20;99.90;;;;;;5061219;28;20411;-58
2022/08/05 00:51:22;;;;;;;4.78;1.88;;;22.20;99.90;;;;;;5078273;28;20115;-58
2022/08/05 00:53:49;;;;;;;7.85;1.98;;;22.10;99.90;;;;;;5078156;28;20028;-58
2022/08/05 00:56:16;;;;;;;8.45;2.03;;;22.10;99.90;;;;;;5078104;28;20028;-58
2022/08/05 00:58:42;;;;;;;6.63;1.90;;;22.10;99.90;;;;;;5077839;28;20091;-60
2022/08/05 01:01:10;;;;;;;6.05;1.80;;;22.20;99.90;;;;;;5077993;28;20033;-58
2022/08/05 01:03:37;;;;;;;4.30;2.15;;;22.20;99.90;;;;;;5077883;28;20024;-58
2022/08/05 01:06:03;;;;;;;6.88;1.88;;;22.20;99.90;;;;;;5077256;28;20048;-58
2022/08/05 01:08:29;;;;;;;6.97;2.10;;;22.10;99.90;;;;;;5077854;28;20040;-59
2022/08/05 01:10:58;;;;;;;3.80;1.98;;;22.10;99.90;;;;;;5077050;28;20285;-59
2022/08/05 01:13:30;;;;;;;5.20;2.00;;;22.20;99.90;;;;;;5077819;28;20300;-58
2022/08/05 01:16:01;;;;;;;6.03;1.87;;;22.20;99.90;;;;;;5077181;28;20031;-59
2022/08/05 01:18:32;;;;;;;5.80;1.90;;;22.20;99.90;;;;;;5077674;28;20329;-59
2022/08/05 01:21:22;;;;;;;6.25;2.10;;;22.10;99.90;;;;;;5077692;28;20293;-59
2022/08/05 01:24:01;;;;;;;4.30;2.30;;;22.10;99.90;;;;;;5077810;28;20051;-58
2022/08/05 01:27:02;;;;;;;6.38;2.15;;;22.10;99.90;;;;;;5077565;28;20097;-60
2022/08/05 01:29:41;;;;;;;6.18;2.10;;;22.10;99.90;;;;;;5076895;28;20063;-58
2022/08/05 01:32:10;;;;;;;5.53;2.30;;;22.10;99.90;;;;;;5078040;28;20261;-58
2022/08/05 01:34:49;;;;;;;5.60;2.60;;;22.10;99.90;;;;;;5077298;28;20097;-58
2022/08/05 01:37:19;;;;;;;5.28;2.38;;;22.10;99.90;;;;;;5077273;28;20304;-58
2022/08/05 01:39:47;;;;;;;8.27;2.83;;;21.90;99.90;;;;;;5077261;28;20358;-58
2022/08/05 01:42:18;;;;;;;5.45;2.70;;;21.80;99.90;;;;;;5076574;28;20047;-58
2022/08/05 01:44:45;;;;;;;5.88;2.67;;;21.80;99.90;;;;;;5076680;28;20029;-58
2022/08/05 01:47:16;;;;;;;7.63;2.70;;;21.70;99.90;;;;;;5077250;28;20033;-58
2022/08/05 01:49:42;;;;;;;9.43;3.08;;;21.60;99.90;;;;;;5076482;28;20337;-58
2022/08/05 01:52:10;;;;;;;7.65;3.45;;;21.50;99.90;;;;;;5077567;28;20032;-59
2022/08/05 01:54:51;;;;;;;6.97;2.92;;;21.50;99.90;;;;;;5077068;28;20473;-58
2022/08/05 01:57:23;;;;;;;5.97;2.80;;;21.50;99.90;;;;;;5077318;28;20416;-58
2022/08/05 01:59:51;;;;;;;6.85;3.45;;;21.40;99.90;;;;;;5076336;28;20036;-59
2022/08/05 02:02:20;;;;;;;9.13;3.20;;;21.40;99.90;;;;;;5077009;28;20039;-59
2022/08/05 02:04:47;;;;;;;7.13;2.95;;;21.30;99.90;;;;;;5076912;28;20024;-59
2022/08/05 02:07:13;;;;;;;8.60;3.00;;;21.20;99.90;;;;;;5077031;28;20028;-59
2022/08/05 02:09:39;;;;;;;7.97;3.67;;;21.40;99.90;;;;;;5077089;28;20102;-59
2022/08/05 02:12:10;;;;;;;6.50;3.00;;;21.40;99.90;;;;;;5077208;28;20037;-59
2022/08/05 02:14:38;;;;;;;5.45;3.20;;;21.40;99.90;;;;;;5077102;28;20043;-60
2022/08/05 02:17:10;;;;;;;7.85;3.20;;;21.40;99.90;;;;;;5077464;28;20032;-59
2022/08/05 02:19:49;;;;;;;6.30;2.80;;;21.40;99.90;;;;;;5076267;28;20040;-59
2022/08/05 02:22:23;;;;;;;9.13;3.90;;;21.40;99.90;;;;;;5077486;28;20039;-59
2022/08/05 02:25:13;;;;;;;7.95;3.53;;;21.40;99.90;;;;;;5076934;28;20032;-59
2022/08/05 02:27:41;;;;;;;8.90;3.72;;;21.10;99.90;;;;;;5079252;28;20140;-60
2022/08/05 02:30:09;;;;;;;9.13;3.47;;;21.20;99.90;;;;;;5080109;28;20424;-59
2022/08/05 02:32:37;;;;;;;8.73;3.05;;;21.20;99.90;;;;;;5080982;28;20424;-59
2022/08/05 02:35:08;;;;;;;9.05;3.22;;;21.30;99.90;;;;;;5080822;28;20055;-59
2022/08/05 02:37:35;;;;;;;7.85;3.30;;;21.40;99.90;;;;;;5080870;28;20040;-59
2022/08/05 02:40:03;;;;;;;6.60;2.80;;;21.40;99.90;;;;;;5080606;28;20036;-59
2022/08/05 02:42:30;;;;;;;4.25;2.80;;;21.40;99.90;;;;;;5080708;28;20047;-59
2022/08/05 02:44:58;;;;;;;5.55;3.15;;;21.50;99.90;;;;;;5080882;28;20417;-59
2022/08/05 02:47:26;;;;;;;5.63;2.85;;;21.60;99.90;;;;;;5081161;28;20045;-60
2022/08/05 02:49:52;;;;;;;6.60;3.40;;;21.50;99.90;;;;;;5079779;28;20032;-59
2022/08/05 02:52:19;;;;;;;11.02;3.33;;;21.50;99.90;;;;;;5080763;28;20295;-59
2022/08/05 02:54:46;;;;;;;8.13;3.80;;;21.50;99.90;;;;;;5079853;28;20036;-59
2022/08/05 02:57:14;;;;;;;6.50;3.35;;;21.50;99.90;;;;;;5080262;28;20044;-59
2022/08/05 02:59:43;;;;;;;7.25;3.35;;;21.40;99.90;;;;;;5080177;28;20400;-59
2022/08/05 03:02:11;;;;;;;9.32;3.40;;;21.40;99.90;;;;;;5080869;28;20028;-59
2022/08/05 03:04:38;;;;;;;6.43;2.90;;;21.30;99.90;;;;;;5079443;28;20043;-59
2022/08/05 03:07:05;;;;;;;7.88;3.78;;;21.30;99.90;;;;;;5080247;28;20035;-59
2022/08/05 03:09:31;;;;;;;9.85;3.25;;;21.30;99.90;;;;;;5080262;28;20032;-59
2022/08/05 03:11:57;;;;;;;9.68;3.60;;;21.30;99.90;;;;;;5079415;28;20041;-59
2022/08/05 03:14:22;;;;;;;6.50;3.60;;;21.30;99.90;;;;;;5079884;28;20396;-59
2022/08/05 03:16:48;;;;;;;10.82;3.92;;;21.20;99.90;;;;;;5079344;28;20033;-59
2022/08/05 03:19:14;;;;;;;9.13;3.10;;;21.10;99.90;;;;;;5079902;28;20052;-59
2022/08/05 03:21:40;;;;;;;8.07;3.95;;;21.10;99.90;;;;;;5079945;28;20072;-59
2022/08/05 03:24:07;;;;;;;7.20;3.10;;;21.10;99.90;;;;;;5079244;28;20419;-59
2022/08/05 03:26:33;;;;;;;9.38;3.80;;;21.00;99.90;;;;;;5079836;28;20041;-59
2022/08/05 03:28:59;;;;;;;7.43;3.42;;;21.00;99.90;;;;;;5080051;28;20056;-59
2022/08/05 03:31:26;;;;;;;6.20;3.00;;;21.00;99.90;;;;;;5079765;28;20044;-59
2022/08/05 03:33:52;;;;;;;7.50;3.17;;;20.90;99.90;;;;;;5079665;28;20036;-59
2022/08/05 03:36:18;;;;;;;7.20;3.63;;;20.80;99.90;;;;;;5079697;28;20039;-59
2022/08/05 03:38:44;;;;;;;7.72;3.13;;;20.70;99.90;;;;;;5078741;28;20036;-59
2022/08/05 03:41:09;;;;;;;7.13;3.65;;;20.70;99.90;;;;;;5080143;28;20086;-59
2022/08/05 03:43:36;;;;;;;8.05;3.40;;;20.70;99.90;;;;;;5079960;28;20029;-59
2022/08/05 03:46:02;;;;;;;6.05;3.45;;;20.70;99.90;;;;;;5079531;28;20025;-59
2022/08/05 03:48:29;;;;;;;9.00;3.63;;;20.60;99.90;;;;;;5079926;28;20047;-59
2022/08/05 03:51:16;;;;;;;12.23;4.20;;;20.60;99.90;;;;;;5078727;28;20381;-60
2022/08/05 03:53:56;;;;;;;10.30;3.72;;;20.50;99.90;;;;;;5079375;28;20032;-59
2022/08/05 03:56:35;;;;;;;8.48;3.78;;;20.50;99.90;;;;;;5079896;28;20288;-59
2022/08/05 03:59:06;;;;;;;8.68;3.88;;;20.40;99.90;;;;;;5079482;28;20296;-59
2022/08/05 04:01:36;;;;;;;13.55;3.92;;;20.40;99.90;;;;;;5078510;28;20028;-59
2022/08/05 04:04:03;;;;;;;5.30;3.13;;;20.40;99.90;;;;;;5079273;28;20032;-59
2022/08/05 04:06:30;;;;;;;6.60;3.50;;;20.40;99.90;;;;;;5079164;28;20024;-59
2022/08/05 04:08:57;;;;;;;7.10;3.28;;;20.50;99.90;;;;;;5079346;28;20040;-59
2022/08/05 04:11:24;;;;;;;6.00;3.30;;;20.50;99.90;;;;;;5078266;28;20037;-59
2022/08/05 04:13:50;;;;;;;5.78;3.45;;;20.50;99.90;;;;;;5061942;28;20152;-59
2022/08/05 04:16:16;;;;;;;6.18;3.30;;;20.50;99.90;;;;;;5078901;28;20047;-59
2022/08/05 04:18:44;;;;;;;10.85;3.83;;;20.50;99.90;;;;;;5078497;28;20035;-60
2022/08/05 04:21:10;;;;;;;6.53;3.17;;;20.60;99.90;;;;;;5078822;28;20277;-60
2022/08/05 04:23:36;;;;;;;6.82;3.70;;;20.60;99.90;;;;;;5079188;28;20043;-59
2022/08/05 04:26:02;;;;;;;7.53;3.88;;;20.40;99.90;;;;;;5078719;28;20327;-60
2022/08/05 04:28:28;;;;;;;7.05;3.72;;;20.40;99.90;;;;;;5078284;28;20427;-61
2022/08/05 04:30:54;;;;;;;5.90;3.28;;;20.40;99.90;;;;;;5078532;28;20174;-59
2022/08/05 04:33:20;;;;;;;7.07;3.88;;;20.30;99.90;;;;;;5077756;28;20028;-59
2022/08/05 04:35:46;;;;;;;9.35;3.83;;;20.20;99.90;;;;;;5078323;28;20408;-59
2022/08/05 04:38:11;;;;;;;12.70;4.22;;;20.20;99.90;;;;;;5078596;28;20086;-59
2022/08/05 04:40:39;;;;;;;7.03;4.32;;;20.20;99.90;;;;;;5078137;28;20047;-59
2022/08/05 04:43:06;;;;;;;8.73;4.18;;;20.20;99.90;;;;;;5078263;28;20131;-59
2022/08/05 04:45:32;;;;;;;9.77;4.55;;;20.20;99.90;;;;;;5078382;28;20029;-59
2022/08/05 04:48:07;;;;;;;8.55;3.85;;;20.20;99.90;;;;;;5077615;28;20107;-59
2022/08/05 04:50:47;;;;;;;10.43;3.95;;;20.20;99.90;;;;;;5077988;28;20136;-59
2022/08/05 04:53:15;;;;;;;8.20;4.80;;;20.20;99.90;;;;;;5078162;28;20050;-62
2022/08/05 04:55:42;;;;;;;10.90;4.30;;;20.10;99.90;;;;;;5078679;28;20035;-60
2022/08/05 04:58:10;;;;;;;7.57;4.72;;;20.10;99.90;;;;;;5077944;28;20040;-59
2022/08/05 05:00:37;;;;;;;7.25;4.95;;;20.20;99.90;;;;;;5077163;28;20036;-59
2022/08/05 05:03:04;;;;;;;12.13;5.22;;;20.10;99.90;;;;;;5077881;28;20074;-59
2022/08/05 05:05:31;;;;;;;7.28;4.57;;;20.00;99.90;;;;;;5077832;28;20040;-59
2022/08/05 05:08:07;;;;;;;8.38;5.03;;;20.00;99.90;;;;;;5078089;28;20143;-59
2022/08/05 05:10:42;;;;;;;13.45;5.75;;;19.90;99.90;;;;;;5078097;28;20032;-59
2022/08/05 05:13:12;;;;;;;12.05;5.65;;;19.90;99.90;;;;;;5077846;28;20064;-59
2022/08/05 05:15:39;;;;;;;9.55;5.20;;;19.90;99.90;;;;;;5076862;28;20055;-60
2022/08/05 05:18:05;;;;;;;10.18;4.90;;;19.90;99.90;;;;;;5077917;28;20024;-59
2022/08/05 05:20:32;;;;;;;10.43;5.18;;;19.90;99.90;;;;;;5077517;28;20047;-59
2022/08/05 05:22:59;;;;;;;12.90;5.63;;;20.00;99.90;;;;;;5077592;28;20059;-59
2022/08/05 05:25:25;;;;;;;8.73;4.32;;;20.20;99.90;;;;;;5077642;28;20028;-60
2022/08/05 05:27:51;;;;;;;8.40;4.50;;;20.20;99.90;;;;;;5076734;28;20132;-60
2022/08/05 05:30:18;;;;;;;12.45;4.20;;;20.30;99.90;;;;;;5077394;28;20032;-59
2022/08/05 05:32:43;;;;;;;7.32;4.38;;;20.40;99.90;;;;;;5077347;28;20419;-59
2022/08/05 05:35:10;;;;;;;8.27;4.60;;;20.50;99.90;;;;;;5076532;28;20036;-59
2022/08/05 05:37:52;;;;;;;7.03;4.35;;;20.60;99.90;;;;;;5077323;28;20036;-60
2022/08/05 05:40:20;;;;;;;9.10;4.30;;;20.70;99.90;;;;;;5077222;28;20044;-59
2022/08/05 05:42:47;;;;;;;8.38;3.92;;;20.80;99.90;;;;;;5076438;28;20043;-59
2022/08/05 05:45:12;;;;;;;6.45;3.50;;;20.80;99.90;;;;;;5077265;28;20308;-60
2022/08/05 05:47:39;;;;;;;6.35;3.60;;;20.80;99.90;;;;;;5077250;28;20029;-59
2022/08/05 05:50:06;;;;;;;6.82;3.35;;;20.80;99.90;;;;;;5076480;28;20058;-59
2022/08/05 05:52:32;;;;;;;7.28;2.95;;;20.90;99.90;;;;;;5077204;28;20433;-59
2022/08/05 05:54:59;;;;;;;5.18;2.50;;;20.80;99.90;;;;;;5077717;28;20037;-59
2022/08/05 05:57:25;;;;;;;7.22;2.90;;;20.90;99.90;;;;;;5076910;28;20075;-59
2022/08/05 05:59:51;;;;;;;5.07;2.75;;;20.90;99.90;;;;;;5076984;28;20037;-59
2022/08/05 06:02:17;;;;;;;7.32;2.42;;;21.00;99.90;;;;;;5076754;28;20035;-58
2022/08/05 06:04:43;;;;;;;5.65;2.42;;;21.10;99.90;;;;;;5077174;28;20418;-58
2022/08/05 06:07:09;;;;;;;6.22;2.40;;;21.20;99.90;;;;;;5077333;28;20051;-58
2022/08/05 06:09:34;;;;;;;7.80;2.67;;;21.20;99.90;;;;;;5076883;28;20392;-58
2022/08/05 06:12:00;;;;;;;5.90;2.42;;;21.10;99.90;;;;;;5076996;28;20043;-58
2022/08/05 06:14:27;;;;;;;4.78;1.98;;;21.10;99.90;;;;;;5077082;28;20063;-59
2022/08/05 06:16:52;;;;;;;5.25;1.80;;;21.10;99.90;;;;;;5076876;28;20408;-59
2022/08/05 06:19:18;;;;;;;4.05;2.08;;;21.10;99.90;;;;;;5076892;28;20413;-58
2022/08/05 06:21:45;;;;;;;5.95;2.22;;;21.10;99.90;;;;;;5076790;28;20032;-58
2022/08/05 06:24:11;;;;;;;6.45;2.00;;;21.20;99.90;;;;;;5076823;28;20040;-58
2022/08/05 06:26:37;;;;;;;6.97;2.17;;;21.30;99.90;;;;;;5077318;28;20029;-58
2022/08/05 06:29:03;;;;;;;4.25;1.90;;;21.30;99.90;;;;;;5076278;28;20060;-59
2022/08/05 06:31:28;;;;;;;4.35;1.85;;;21.40;99.90;;;;;;5075870;28;20048;-59
2022/08/05 06:33:54;;;;;;;4.45;1.67;;;21.40;99.90;;;;;;5076209;28;20277;-59
2022/08/05 06:36:20;;;;;;;6.70;1.67;;;21.30;99.90;;;;;;5076720;28;20036;-58
2022/08/05 06:38:46;;;;;;;4.28;1.48;;;21.30;99.90;;;;;;5075918;28;20039;-59
2022/08/05 06:41:11;;;;;;;3.95;1.63;;;21.40;99.90;;;;;;5075839;28;20029;-59
2022/08/05 06:43:37;;;;;;;1.95;1.20;;;21.50;99.90;;;;;;5076540;28;20064;-59
2022/08/05 06:46:03;;;;;;;4.70;1.60;;;21.60;99.90;;;;;;5076556;28;20029;-59
2022/08/05 06:48:29;;;;;;;4.28;1.50;;;21.70;99.90;;;;;;5075735;28;20033;-59
2022/08/05 06:50:55;;;;;;;5.40;1.40;;;21.70;99.90;;;;;;5076467;28;20043;-59
2022/08/05 06:53:21;;;;;;;3.40;1.40;;;21.50;99.90;;;;;;5076551;28;20024;-61
2022/08/05 06:55:47;;;;;;;5.70;1.75;;;21.40;99.90;;;;;;5076502;28;20082;-58
2022/08/05 06:58:14;;;;;;;8.80;2.30;;;21.40;99.90;;;;;;5076386;28;20057;-58
2022/08/05 07:00:40;;;;;;;6.28;2.10;;;21.40;99.90;;;;;;5075731;28;20047;-59
2022/08/05 07:03:05;;;;;;;4.22;1.65;;;21.30;99.90;;;;;;5076401;28;20029;-59
2022/08/05 07:05:31;;;;;;;7.55;1.65;;;21.30;99.90;;;;;;5076446;28;20021;-59
2022/08/05 07:07:57;;;;;;;6.43;1.70;;;21.10;99.90;;;;;;5076702;28;20063;-59
2022/08/05 07:10:24;;;;;;;6.07;1.60;;;21.10;99.90;;;;;;5075655;28;20037;-59
2022/08/05 07:18:18;;;;;;;6.82;1.55;;;21.50;99.90;;;;;;5080143;28;20455;-59
2022/08/05 07:20:44;;;;;;;5.13;1.50;;;21.50;99.90;;;;;;5079166;28;20116;-58
2022/08/05 07:23:10;;;;;;;2.83;1.55;;;21.60;99.90;;;;;;5079873;28;20044;-58
2022/08/05 07:25:36;;;;;;;5.90;1.70;;;21.60;99.90;;;;;;5079847;28;20067;-59
2022/08/05 07:28:02;;;;;;;4.45;1.50;;;21.60;99.90;;;;;;5079780;28;20401;-60
2022/08/05 07:30:32;;;;;;;3.88;1.40;;;21.70;99.90;;;;;;5079455;28;20024;-60
2022/08/05 07:32:58;;;;;;;3.40;1.30;;;21.60;99.90;;;;;;5079082;28;20300;-58
2022/08/05 07:35:24;;;;;;;3.25;1.35;;;21.60;99.90;;;;;;5079669;28;20032;-59
2022/08/05 07:37:50;;;;;;;5.45;1.50;;;21.70;99.90;;;;;;5079068;28;20095;-59
2022/08/05 07:40:16;;;;;;;6.70;1.20;;;21.80;99.90;;;;;;5078701;28;20475;-60
2022/08/05 07:42:42;;;;;;;3.83;1.30;;;21.90;99.90;;;;;;5078629;28;20367;-59
2022/08/05 07:45:08;;;;;;;4.53;1.30;;;22.00;99.90;;;;;;5078575;28;20082;-59
2022/08/05 07:47:34;;;;;;;3.15;1.30;;;22.10;99.90;;;;;;5079636;28;20296;-59
2022/08/05 07:49:59;;;;;;;3.35;1.33;;;22.10;99.90;;;;;;5079408;28;20038;-59
2022/08/05 07:52:25;;;;;;;14.45;2.15;;;22.00;99.90;;;;;;5079244;28;20064;-58
2022/08/05 07:54:51;;;;;;;4.75;1.10;;;22.10;99.90;;;;;;5079553;28;20102;-58
2022/08/05 07:57:17;;;;;;;10.52;2.03;;;22.20;99.90;;;;;;5079107;28;20044;-58
2022/08/05 07:59:42;;;;;;;1.98;1.00;;;22.20;99.90;;;;;;5079135;28;20054;-59
2022/08/05 08:02:09;;;;;;;5.03;1.38;;;22.30;99.90;;;;;;5079585;28;20025;-59
2022/08/05 08:04:35;;;;;;;8.52;1.17;;;22.40;99.90;;;;;;5079101;28;20067;-59
2022/08/05 08:07:01;;;;;;;3.05;1.10;;;22.50;99.90;;;;;;5079061;28;20048;-59
2022/08/05 08:09:27;;;;;;;1.58;0.80;;;22.50;99.90;;;;;;5078602;28;20032;-59
2022/08/05 08:11:53;;;;;;;4.47;1.30;;;22.50;99.90;;;;;;5078246;28;20396;-60
2022/08/05 08:14:18;;;;;;;5.22;1.52;;;22.60;99.90;;;;;;5078198;28;20071;-59
2022/08/05 08:16:44;;;;;;;2.17;1.00;;;22.80;99.90;;;;;;5078905;28;20032;-59
2022/08/05 08:19:10;;;;;;;2.42;1.20;;;23.00;99.90;;;;;;5078705;28;20357;-59
2022/08/05 08:21:36;;;;;;;3.83;1.20;;;23.20;99.90;;;;;;5078776;28;20031;-59
2022/08/05 08:24:02;;;;;;;4.47;1.05;;;23.20;99.90;;;;;;5078595;28;20043;-60
2022/08/05 08:26:28;;;;;;;4.25;1.20;;;23.30;99.90;;;;;;5078337;28;20304;-59
2022/08/05 08:28:54;;;;;;;5.45;1.00;;;23.50;99.90;;;;;;5078691;28;20097;-59
2022/08/05 08:31:19;;;;;;;2.92;1.00;;;23.50;99.90;;;;;;5077896;28;20119;-59
2022/08/05 08:33:45;;;;;;;3.10;1.10;;;23.50;99.90;;;;;;5078492;28;20489;-59
2022/08/05 08:36:11;;;;;;;3.80;1.38;;;23.50;99.90;;;;;;5078545;28;20358;-59
2022/08/05 08:38:37;;;;;;;3.22;1.25;;;23.50;99.90;;;;;;5078394;28;20046;-59
2022/08/05 08:41:08;;;;;;;2.95;1.10;;;23.40;99.90;;;;;;5078263;28;20059;-59
2022/08/05 08:43:35;;;;;;;15.95;2.53;;;23.20;99.90;;;;;;5077832;28;20028;-59
2022/08/05 08:46:04;;;;;;;3.20;1.27;;;22.90;99.90;;;;;;5077694;28;20020;-59
2022/08/05 08:48:31;;;;;;;3.63;1.00;;;23.00;99.90;;;;;;5060845;28;20090;-59
2022/08/05 08:50:58;;;;;;;3.88;1.00;;;23.00;99.90;;;;;;5060836;28;20047;-59
2022/08/05 08:53:26;;;;;;;2.72;1.00;;;23.10;99.90;;;;;;5078099;28;20063;-59
2022/08/05 08:55:53;;;;;;;1.90;0.88;;;23.00;99.90;;;;;;5077426;28;20456;-59
2022/08/05 08:58:19;;;;;;;6.22;1.10;;;23.00;99.90;;;;;;5077168;28;20052;-59
2022/08/05 09:00:47;;;;;;;2.85;1.08;;;23.30;99.90;;;;;;5077912;28;20121;-59
2022/08/05 09:03:13;;;;;;;3.72;0.80;;;23.80;99.90;;;;;;5077052;28;20047;-58
2022/08/05 09:05:39;;;;;;;2.53;0.98;;;24.00;99.90;;;;;;5078435;28;20037;-58
2022/08/05 09:08:05;;;;;;;3.95;1.10;;;24.30;99.90;;;;;;5078071;28;20105;-58
2022/08/05 09:10:31;;;;;;;3.33;0.90;;;24.60;99.90;;;;;;5076957;28;20043;-59
2022/08/05 09:12:57;;;;;;;3.10;0.98;;;24.70;99.90;;;;;;5077754;28;20324;-58
2022/08/05 09:15:23;;;;;;;3.45;0.73;;;24.90;99.90;;;;;;5077720;28;20048;-59
2022/08/05 09:17:49;;;;;;;10.23;1.75;;;25.00;99.90;;;;;;5077588;28;20111;-58
2022/08/05 09:20:15;;;;;;;9.30;1.05;;;25.20;99.90;;;;;;5077634;28;20094;-58
2022/08/05 09:23:16;;;;;;;2.35;0.80;;;25.30;99.90;;;;;;5077632;28;20032;-61
2022/08/05 09:25:44;;;;;;;10.68;1.30;;;25.60;99.90;;;;;;5077602;28;20025;-60
2022/08/05 09:28:12;;;;;;;10.13;1.90;;;25.40;99.90;;;;;;5077446;28;20322;-59
2022/08/05 09:30:42;;;;;;;3.90;1.00;;;25.50;99.90;;;;;;5077462;28;20035;-59
2022/08/05 09:33:08;;;;;;;4.53;0.90;;;25.30;99.90;;;;;;5076715;28;20094;-59
2022/08/05 09:35:34;;;;;;;1.95;0.70;;;25.30;99.90;;;;;;5077352;28;20404;-59
2022/08/05 09:38:00;;;;;;;1.90;0.70;;;25.20;99.90;;;;;;5076679;28;20090;-58
2022/08/05 09:40:35;;;;;;;18.25;2.00;;;25.10;99.90;;;;;;5077269;28;20036;-59
2022/08/05 09:43:02;;;;;;;4.82;1.67;;;24.80;99.90;;;;;;5077464;28;20254;-59
2022/08/05 09:45:41;;;;;;;3.72;0.80;;;24.50;99.90;;;;;;5077554;28;20403;-60
2022/08/05 09:48:45;;;;;;;4.18;1.05;;;24.30;99.90;;;;;;5077278;28;20090;-60
2022/08/05 09:51:11;;;;;;;4.85;0.80;;;24.30;99.90;;;;;;5077193;28;20041;-59
2022/08/05 09:53:51;;;;;;;12.98;1.38;;;24.30;99.90;;;;;;5077140;28;20024;-59
2022/08/05 09:56:34;;;;;;;6.30;0.82;;;24.50;99.90;;;;;;5077213;28;20095;-59
2022/08/05 09:59:11;;;;;;;3.10;0.70;;;24.40;99.90;;;;;;5076889;28;20032;-60
2022/08/05 10:01:41;;;;;;;2.00;0.70;;;24.30;99.90;;;;;;5077613;28;20028;-60
2022/08/05 10:04:12;;;;;;;2.47;0.77;;;24.10;99.90;;;;;;5076337;28;20090;-59
2022/08/05 10:06:55;;;;;;;3.20;0.82;;;24.20;99.90;;;;;;5077082;28;20029;-59
2022/08/05 10:09:21;;;;;;;6.40;1.33;;;24.20;99.90;;;;;;5076916;28;20306;-60
2022/08/05 10:11:47;;;;;;;3.90;0.70;;;24.60;99.90;;;;;;5076196;28;20041;-58
2022/08/05 10:14:29;;;;;;;3.83;0.73;;;24.90;99.90;;;;;;5076816;28;20028;-59
2022/08/05 10:17:10;;;;;;;2.55;0.80;;;25.00;99.90;;;;;;5076904;28;20032;-59
2022/08/05 10:19:36;;;;;;;2.58;0.70;;;25.10;99.90;;;;;;5076859;28;20048;-59
2022/08/05 10:22:02;;;;;;;5.07;0.90;;;25.10;99.90;;;;;;5076862;28;20021;-59
2022/08/05 10:24:31;;;;;;;1.38;0.60;;;25.30;99.90;;;;;;5077065;28;20039;-60
2022/08/05 10:26:58;;;;;;;2.25;0.60;;;25.70;99.90;;;;;;5077388;28;20064;-59
2022/08/05 10:29:26;;;;;;;7.47;0.80;;;25.80;99.90;;;;;;5076780;28;20085;-59
2022/08/05 10:31:52;;;;;;;2.00;0.70;;;26.40;99.90;;;;;;5076082;28;20100;-59
2022/08/05 10:34:18;;;;;;;2.38;0.63;;;26.80;99.90;;;;;;5076730;28;20417;-60
2022/08/05 10:36:45;;;;;;;5.70;1.00;;;26.70;99.90;;;;;;5076774;28;20033;-60
2022/08/05 10:39:18;;;;;;;6.65;1.27;;;26.30;99.90;;;;;;5076921;28;20043;-59
2022/08/05 10:41:54;;;;;;;3.67;0.70;;;26.00;99.90;;;;;;5075726;28;20032;-59
2022/08/05 10:44:21;;;;;;;6.05;0.88;;;26.00;99.90;;;;;;5076663;28;20392;-59
2022/08/05 10:46:53;;;;;;;9.18;1.25;;;26.40;99.90;;;;;;5077068;28;20025;-59
2022/08/05 10:49:20;;;;;;;2.55;0.65;;;26.80;99.90;;;;;;5079908;28;20028;-59
2022/08/05 10:51:56;;;;;;;3.13;0.70;;;27.00;99.90;;;;;;5080577;28;20059;-59
2022/08/05 10:54:43;;;;;;;2.75;0.60;;;27.30;99.90;;;;;;5080563;28;20041;-60
2022/08/05 10:57:11;;;;;;;2.15;0.50;;;27.20;99.90;;;;;;5080243;28;20040;-58
2022/08/05 10:59:38;;;;;;;4.80;0.80;;;27.40;99.90;;;;;;5079645;28;20047;-58
2022/08/05 11:02:12;;;;;;;8.32;0.95;;;27.50;99.90;;;;;;5080279;28;20112;-58
2022/08/05 11:04:46;;;;;;;5.25;0.90;;;27.50;99.90;;;;;;5079595;28;20068;-60
2022/08/05 11:07:17;;;;;;;1.88;0.60;;;27.10;99.90;;;;;;5080761;28;20037;-59
2022/08/05 11:09:49;;;;;;;5.43;0.60;;;27.10;99.90;;;;;;5079748;28;20043;-60
2022/08/05 11:12:41;;;;;;;3.25;0.70;;;28.10;99.90;;;;;;5080236;28;20043;-60
2022/08/05 11:15:07;;;;;;;4.38;0.60;;;29.00;99.90;;;;;;5080050;28;20142;-60
2022/08/05 11:17:37;;;;;;;1.83;0.40;;;29.50;99.90;;;;;;5080052;28;20056;-62
2022/08/05 11:20:27;;;;;;;1.88;0.57;;;30.40;99.90;;;;;;5079195;28;20056;-58
2022/08/05 11:22:53;;;;;;;4.05;0.45;;;30.70;99.40;;;;;;5079705;28;20020;-64
2022/08/05 11:25:43;;;;;;;5.28;0.52;;;31.60;96.00;;;;;;5079783;28;20120;-59
2022/08/05 11:28:08;;;;;;;7.40;0.63;;;31.80;94.60;;;;;;5079876;28;20400;-59
2022/08/05 11:30:56;;;;;;;1.95;0.60;;;32.00;93.50;;;;;;5079677;28;20123;-60
2022/08/05 11:33:36;;;;;;;2.17;0.50;;;32.00;91.90;;;;;;5079915;28;20103;-60
2022/08/05 11:36:02;;;;;;;4.10;0.50;;;31.70;91.30;;;;;;5080283;28;20029;-60
2022/08/05 11:38:37;;;;;;;4.07;0.65;;;31.90;90.70;;;;;;5079622;28;20107;-59
2022/08/05 11:41:21;;;;;;;3.60;0.52;;;32.00;88.20;;;;;;5079546;28;20028;-59
2022/08/05 11:43:59;;;;;;;1.80;0.55;;;31.40;87.20;;;;;;5079569;28;20270;-59
2022/08/05 11:46:32;;;;;;;3.58;0.70;;;30.40;90.10;;;;;;5079540;28;20403;-58
2022/08/05 11:48:59;;;;;;;2.50;0.60;;;29.60;90.80;;;;;;5079038;28;20288;-58
2022/08/05 11:51:26;;;;;;;1.58;0.50;;;28.80;91.10;;;;;;5079403;28;20292;-59
2022/08/05 11:53:54;;;;;;;4.65;0.70;;;28.50;92.60;;;;;;5079319;28;20032;-59
2022/08/05 11:56:20;;;;;;;3.30;0.50;;;29.30;91.30;;;;;;5078547;28;20037;-59
2022/08/05 11:58:47;;;;;;;1.95;0.32;;;30.00;87.70;;;;;;5078968;28;20115;-59
2022/08/05 12:01:19;;;;;;;3.30;0.80;;;31.10;81.50;;;;;;5079087;28;20055;-60
2022/08/05 12:03:50;;;;;;;2.58;0.40;;;31.60;79.30;;;;;;5079206;28;20395;-61
2022/08/05 12:06:21;;;;;;;0.90;0.32;;;32.20;77.00;;;;;;5079439;28;20426;-60
2022/08/05 12:08:52;;;;;;;3.85;0.50;;;33.20;73.40;;;;;;5079123;28;20028;-60
2022/08/05 12:11:29;;;;;;;2.03;0.45;;;33.90;69.50;;;;;;5079125;28;20094;-60
2022/08/05 12:13:57;;;;;;;2.97;0.52;;;34.30;65.40;;;;;;5078323;28;20041;-60
2022/08/05 12:16:25;;;;;;;2.35;0.47;;;34.40;65.00;;;;;;5079475;28;20035;-60
2022/08/05 12:18:52;;;;;;;2.13;0.47;;;34.40;64.20;;;;;;5078804;28;20037;-60
2022/08/05 12:21:21;;;;;;;1.55;0.30;;;34.90;63.20;;;;;;5078210;28;20377;-60
2022/08/05 12:24:04;;;;;;;2.13;0.50;;;35.80;60.30;;;;;;5078757;28;20094;-59
2022/08/05 12:26:40;;;;;;;2.15;0.35;;;36.40;58.60;;;;;;5079356;28;20151;-60
2022/08/05 12:29:10;;;;;;;3.17;0.60;;;36.30;56.30;;;;;;5078889;28;20028;-59
2022/08/05 12:31:36;;;;;;;1.52;0.40;;;35.80;57.50;;;;;;5079225;28;20174;-59
2022/08/05 12:34:04;;;;;;;1.42;0.35;;;35.70;55.80;;;;;;5078583;28;20020;-60
2022/08/05 12:36:31;;;;;;;3.97;0.63;;;35.90;55.70;;;;;;5079117;28;20048;-60
2022/08/05 12:38:58;;;;;;;0.88;0.40;;;35.70;55.00;;;;;;5078327;28;20178;-60
2022/08/05 12:41:33;;;;;;;1.45;0.40;;;33.80;56.10;;;;;;5078542;28;20025;-59
2022/08/05 12:44:02;;;;;;;0.50;0.30;;;32.30;58.70;;;;;;5078425;28;20028;-59
2022/08/05 12:46:34;;;;;;;1.23;0.40;;;31.50;60.50;;;;;;5078340;28;20021;-59
2022/08/05 12:49:05;;;;;;;1.20;0.40;;;31.40;60.40;;;;;;5078548;28;20054;-59
2022/08/05 12:51:41;;;;;;;1.33;0.50;;;31.00;61.60;;;;;;5078308;28;20131;-59
2022/08/05 12:54:08;;;;;;;1.50;0.30;;;30.50;62.50;;;;;;5077411;28;20036;-59
2022/08/05 12:56:40;;;;;;;1.50;0.40;;;30.20;65.10;;;;;;5077882;28;20440;-60
2022/08/05 12:59:13;;;;;;;;;;;31.70;63.60;;;;;;5078488;28;20032;-59